createdAt,value
2022-09-03T00:00:28.022Z,96247.94
2022-09-03T00:03:04.432Z,96246.75
2022-09-03T00:05:40.069Z,96249.13
2022-09-03T00:08:13.363Z,96242.91
2022-09-03T00:10:48.029Z,96239.41
2022-09-03T00:13:21.310Z,96249.94
2022-09-03T00:15:53.471Z,96239.06
2022-09-03T00:18:24.902Z,96236.41
2022-09-03T00:20:59.499Z,96242.75
2022-09-03T00:23:32.153Z,96235.75
2022-09-03T00:26:17.835Z,96241.09
2022-09-03T00:28:52.849Z,96228.56
2022-09-03T00:31:27.327Z,96237.56
2022-09-03T00:33:59.759Z,96233.41
2022-09-03T00:36:35.623Z,96229.75
2022-09-03T00:39:03.699Z,96228.06
2022-09-03T00:41:37.784Z,96227.25
2022-09-03T00:44:32.140Z,96227.09
2022-09-03T00:47:10.985Z,96230.06
2022-09-03T00:49:49.413Z,96232.59
2022-09-03T00:52:29.644Z,96228.25
2022-09-03T00:55:08.217Z,96231.41
2022-09-03T00:57:49.133Z,96228.56
2022-09-03T01:00:20.284Z,96228.38
2022-09-03T01:03:08.054Z,96232.06
2022-09-03T01:05:49.116Z,96238.25
2022-09-03T01:08:34.456Z,96235.75
2022-09-03T01:11:13.688Z,96220.72
2022-09-03T01:13:47.571Z,96227.75
2022-09-03T01:16:28.715Z,96226.41
2022-09-03T01:19:06.636Z,96229.09
2022-09-03T01:21:52.196Z,96222.25
2022-09-03T01:24:43.665Z,96223.09
2022-09-03T01:27:23.384Z,96225.91
2022-09-03T01:30:03.976Z,96225.44
2022-09-03T01:32:38.442Z,96229.97
2022-09-03T01:35:16.414Z,96222.94
2022-09-03T01:37:58.707Z,96225.75
2022-09-03T01:40:36.776Z,96230.28
2022-09-03T01:43:23.743Z,96234.28
2022-09-03T01:46:00.543Z,96236.13
2022-09-03T01:48:44.061Z,96233.66
2022-09-03T01:51:19.581Z,96235.47
2022-09-03T01:54:07.701Z,96237.50
2022-09-03T01:56:52.040Z,96242.16
2022-09-03T01:59:27.565Z,96240.97
2022-09-03T02:02:03.415Z,96238.16
2022-09-03T02:04:36.619Z,96234.81
2022-09-03T02:07:06.015Z,96241.19
2022-09-03T02:09:34.189Z,96239.84
2022-09-03T02:12:09.303Z,96241.16
2022-09-03T02:14:37.787Z,96244.00
2022-09-03T02:17:08.815Z,96240.84
2022-09-03T02:19:38.115Z,96241.84
2022-09-03T02:22:07.250Z,96247.69
2022-09-03T02:24:35.388Z,96245.53
2022-09-03T02:27:04.102Z,96239.16
2022-09-03T02:29:32.672Z,96241.19
2022-09-03T02:32:00.899Z,96235.00
2022-09-03T02:34:31.349Z,96236.69
2022-09-03T02:36:59.495Z,96231.16
2022-09-03T02:39:28.956Z,96232.03
2022-09-03T02:42:04.169Z,96232.84
2022-09-03T02:44:34.650Z,96228.69
2022-09-03T02:47:06.586Z,96219.84
2022-09-03T02:49:36.754Z,96224.34
2022-09-03T02:52:09.501Z,96229.19
2022-09-03T02:54:39.877Z,96231.69
2022-09-03T02:57:09.178Z,96229.53
2022-09-03T02:59:38.065Z,96238.88
2022-09-03T03:02:06.371Z,96236.53
2022-09-03T03:04:36.039Z,96238.53
2022-09-03T03:07:04.350Z,96237.03
2022-09-03T03:09:32.425Z,96238.38
2022-09-03T03:12:00.572Z,96232.38
2022-09-03T03:14:28.696Z,96238.72
2022-09-03T03:16:56.882Z,96246.88
2022-09-03T03:19:24.991Z,96249.38
2022-09-03T03:21:54.975Z,96244.84
2022-09-03T03:24:23.018Z,96241.53
2022-09-03T03:26:51.080Z,96241.53
2022-09-03T03:29:19.913Z,96237.38
2022-09-03T03:31:47.943Z,96234.72
2022-09-03T03:34:16.038Z,96239.53
2022-09-03T03:36:44.139Z,96246.53
2022-09-03T03:39:13.657Z,96241.72
2022-09-03T03:41:41.746Z,96250.88
2022-09-03T03:44:10.302Z,96254.53
2022-09-03T03:46:40.081Z,96250.88
2022-09-03T03:49:11.825Z,96244.53
2022-09-03T03:51:40.841Z,96255.34
2022-09-03T03:54:08.911Z,96249.69
2022-09-03T03:56:38.411Z,96249.19
2022-09-03T03:59:06.510Z,96252.34
2022-09-03T04:01:34.726Z,96258.50
2022-09-03T04:04:03.074Z,96260.34
2022-09-03T04:06:31.125Z,96256.34
2022-09-03T04:08:59.252Z,96249.03
2022-09-03T04:11:27.669Z,96253.84
2022-09-03T04:13:57.205Z,96262.22
2022-09-03T04:16:27.038Z,96261.53
2022-09-03T04:18:56.448Z,96252.53
2022-09-03T04:21:28.387Z,96254.38
2022-09-03T04:23:57.793Z,96257.53
2022-09-03T04:26:28.450Z,96254.53
2022-09-03T04:28:57.976Z,96254.84
2022-09-03T04:31:26.395Z,96250.19
2022-09-03T04:33:55.014Z,96251.69
2022-09-03T04:36:25.097Z,96255.84
2022-09-03T04:38:54.639Z,96257.22
2022-09-03T04:41:25.034Z,96253.84
2022-09-03T04:43:54.211Z,96255.34
2022-09-03T04:46:26.180Z,96248.38
2022-09-03T04:48:55.711Z,96254.53
2022-09-03T04:51:27.302Z,96252.53
2022-09-03T04:53:57.429Z,96247.03
2022-09-03T04:56:27.555Z,96250.03
2022-09-03T04:58:57.466Z,96243.88
2022-09-03T05:01:28.872Z,96254.03
2022-09-03T05:03:58.170Z,96254.53
2022-09-03T05:06:27.188Z,96252.88
2022-09-03T05:08:56.571Z,96254.53
2022-09-03T05:11:26.275Z,96258.53
2022-09-03T05:13:56.371Z,96260.88
2022-09-03T05:16:28.371Z,96258.03
2022-09-03T05:18:59.653Z,96256.03
2022-09-03T05:21:30.008Z,96256.84
2022-09-03T05:23:58.428Z,96262.19
2022-09-03T05:26:29.071Z,96262.84
2022-09-03T05:28:59.519Z,96264.53
2022-09-03T05:31:31.781Z,96264.88
2022-09-03T05:34:02.377Z,96261.19
2022-09-03T05:36:32.947Z,96270.69
2022-09-03T05:39:01.546Z,96257.84
2022-09-03T05:41:32.742Z,96265.34
2022-09-03T05:44:01.063Z,96266.69
2022-09-03T05:46:33.435Z,96266.19
2022-09-03T05:49:02.472Z,96273.84
2022-09-03T05:51:32.021Z,96276.16
2022-09-03T05:54:00.626Z,96272.16
2022-09-03T05:56:32.017Z,96282.47
2022-09-03T05:59:04.812Z,96278.47
2022-09-03T06:01:36.076Z,96279.00
2022-09-03T06:04:05.980Z,96283.16
2022-09-03T06:06:35.847Z,96284.47
2022-09-03T06:09:06.977Z,96282.81
2022-09-03T06:11:37.436Z,96283.28
2022-09-03T06:14:08.209Z,96282.81
2022-09-03T06:16:40.474Z,96277.63
2022-09-03T06:19:10.292Z,96281.78
2022-09-03T06:21:42.836Z,96287.47
2022-09-03T06:24:13.007Z,96286.28
2022-09-03T06:26:43.411Z,96292.59
2022-09-03T06:29:12.119Z,96297.94
2022-09-03T06:31:41.808Z,96294.25
2022-09-03T06:34:10.806Z,96303.09
2022-09-03T06:36:41.212Z,96299.44
2022-09-03T06:39:09.533Z,96295.75
2022-09-03T06:41:38.133Z,96295.41
2022-09-03T06:44:11.528Z,96292.38
2022-09-03T06:46:43.410Z,96291.22
2022-09-03T06:49:12.486Z,96292.69
2022-09-03T06:51:41.375Z,96294.84
2022-09-03T06:54:11.231Z,96284.63
2022-09-03T06:56:41.859Z,96290.31
2022-09-03T06:59:12.005Z,96285.63
2022-09-03T07:01:44.487Z,96292.94
2022-09-03T07:04:19.164Z,96293.22
2022-09-03T07:06:47.576Z,96284.88
2022-09-03T07:09:18.386Z,96290.03
2022-09-03T07:11:48.763Z,96292.19
2022-09-03T07:14:18.694Z,96290.47
2022-09-03T07:16:47.805Z,96295.66
2022-09-03T07:19:17.795Z,96294.44
2022-09-03T07:21:49.675Z,96285.72
2022-09-03T07:24:21.866Z,96296.38
2022-09-03T07:26:50.074Z,96284.91
2022-09-03T07:29:20.646Z,96297.66
2022-09-03T07:31:51.925Z,96291.25
2022-09-03T07:34:26.720Z,96291.25
2022-09-03T07:36:55.281Z,96303.69
2022-09-03T07:39:23.582Z,96306.53
2022-09-03T07:41:51.923Z,96305.00
2022-09-03T07:44:20.594Z,96301.50
2022-09-03T07:46:51.471Z,96309.81
2022-09-03T07:49:22.436Z,96311.09
2022-09-03T07:51:54.703Z,96303.00
2022-09-03T07:54:24.186Z,96302.38
2022-09-03T07:56:52.415Z,96307.69
2022-09-03T07:59:21.384Z,96309.63
2022-09-03T08:01:50.850Z,96307.69
2022-09-03T08:04:19.028Z,96307.00
2022-09-03T08:06:48.403Z,96312.47
2022-09-03T08:09:16.781Z,96314.50
2022-09-03T08:11:45.365Z,96319.78
2022-09-03T08:14:15.558Z,96321.91
2022-09-03T08:16:45.999Z,96317.47
2022-09-03T08:19:14.874Z,96321.63
2022-09-03T08:21:43.029Z,96325.22
2022-09-03T08:24:13.480Z,96326.50
2022-09-03T08:26:47.693Z,96329.47
2022-09-03T08:29:19.538Z,96321.03
2022-09-03T08:31:47.738Z,96324.00
2022-09-03T08:34:17.695Z,96326.66
2022-09-03T08:36:47.291Z,96323.81
2022-09-03T08:39:17.172Z,96319.75
2022-09-03T08:42:27.263Z,96323.59
2022-09-03T08:44:58.692Z,96327.16
2022-09-03T08:47:34.156Z,96332.50
2022-09-03T08:50:09.237Z,96335.84
2022-09-03T08:52:42.643Z,96339.78
2022-09-03T08:55:21.746Z,96337.50
2022-09-03T08:57:52.205Z,96347.19
2022-09-03T09:00:20.878Z,96347.66
2022-09-03T09:02:59.455Z,96346.63
2022-09-03T09:05:42.625Z,96344.41
2022-09-03T09:08:21.949Z,96356.47
2022-09-03T09:11:02.225Z,96347.94
2022-09-03T09:13:40.600Z,96355.16
2022-09-03T09:16:17.136Z,96352.47
2022-09-03T09:18:57.735Z,96353.22
2022-09-03T09:21:31.119Z,96353.22
2022-09-03T09:24:04.245Z,96358.66
2022-09-03T09:26:34.902Z,96345.13
2022-09-03T09:29:07.958Z,96349.38
2022-09-03T09:31:39.853Z,96340.09
2022-09-03T09:34:09.331Z,96332.78
2022-09-03T09:36:43.861Z,96328.81
2022-09-03T09:39:15.862Z,96321.91
2022-09-03T09:41:57.709Z,96323.38
2022-09-03T09:44:27.970Z,96317.44
2022-09-03T09:47:06.451Z,96326.94
2022-09-03T09:49:36.323Z,96337.91
2022-09-03T09:52:09.002Z,96342.41
2022-09-03T09:54:37.042Z,96343.06
2022-09-03T09:57:08.552Z,96339.69
2022-09-03T09:59:38.117Z,96352.25
2022-09-03T10:02:22.018Z,96345.50
2022-09-03T10:04:50.568Z,96351.09
2022-09-03T10:07:30.147Z,96338.31
2022-09-03T10:10:02.801Z,96340.28
2022-09-03T10:12:38.069Z,96337.59
2022-09-03T10:15:16.744Z,96336.56
2022-09-03T10:17:58.816Z,96337.09
2022-09-03T10:20:37.334Z,96331.06
2022-09-03T10:23:15.330Z,96327.22
2022-09-03T10:25:58.025Z,96330.25
2022-09-03T10:28:30.264Z,96334.97
2022-09-03T10:31:11.337Z,96334.22
2022-09-03T10:33:44.088Z,96331.81
2022-09-03T10:36:20.092Z,96336.22
2022-09-03T10:38:54.587Z,96336.84
2022-09-03T10:41:39.242Z,96329.03
2022-09-03T10:44:23.515Z,96333.69
2022-09-03T10:47:03.896Z,96332.06
2022-09-03T10:49:50.565Z,96328.81
2022-09-03T10:52:28.602Z,96325.09
2022-09-03T10:55:23.494Z,96325.09
2022-09-03T10:58:02.397Z,96323.06
2022-09-03T11:00:35.449Z,96315.41
2022-09-03T11:03:30.504Z,96317.69
2022-09-03T11:06:06.335Z,96315.19
2022-09-03T11:08:38.968Z,96306.72
2022-09-03T11:11:14.689Z,96306.75
2022-09-03T11:13:48.300Z,96309.69
2022-09-03T11:16:22.186Z,96305.97
2022-09-03T11:18:52.851Z,96315.06
2022-09-03T11:21:24.796Z,96310.84
2022-09-03T11:24:02.476Z,96310.28
2022-09-03T11:26:31.455Z,96304.03
2022-09-03T11:29:04.118Z,96311.44
2022-09-03T11:31:43.735Z,96311.91
2022-09-03T11:34:23.317Z,96303.38
2022-09-03T11:37:08.713Z,96306.47
2022-09-03T11:39:40.571Z,96290.50
2022-09-03T11:42:13.289Z,96292.34
2022-09-03T11:44:47.917Z,96303.09
2022-09-03T11:47:25.985Z,96312.97
2022-09-03T11:50:06.058Z,96310.50
2022-09-03T11:52:40.697Z,96306.72
2022-09-03T11:55:10.045Z,96326.69
2022-09-03T11:57:43.405Z,96343.84
2022-09-03T12:00:14.301Z,96351.66
2022-09-03T12:02:49.788Z,96353.03
2022-09-03T12:05:27.734Z,96346.28
2022-09-03T12:08:35.671Z,96346.47
2022-09-03T12:11:25.764Z,96353.84
2022-09-03T12:14:00.067Z,96362.91
2022-09-03T12:17:00.225Z,96373.00
2022-09-03T12:19:38.708Z,96399.03
2022-09-03T12:22:07.032Z,96400.69
2022-09-03T12:24:37.803Z,96409.72
2022-09-03T12:27:06.751Z,96420.44
2022-09-03T12:29:34.848Z,96417.16
2022-09-03T12:32:10.223Z,96420.91
2022-09-03T12:34:39.540Z,96419.94
2022-09-03T12:38:04.049Z,96429.97
2022-09-03T12:40:19.396Z,96429.78
2022-09-03T12:42:47.834Z,96413.56
2022-09-03T12:45:21.701Z,96416.78
2022-09-03T12:47:50.058Z,96411.25
2022-09-03T12:50:21.826Z,96418.09
2022-09-03T12:52:53.541Z,96403.25
2022-09-03T12:55:30.155Z,96402.72
2022-09-03T12:58:04.605Z,96392.00
2022-09-03T13:00:35.843Z,96393.72
2022-09-03T13:03:08.595Z,96393.84
2022-09-03T13:06:01.908Z,96392.31
2022-09-03T13:08:34.484Z,96393.28
2022-09-03T13:11:05.716Z,96397.22
2022-09-03T13:13:37.101Z,96399.13
2022-09-03T13:16:19.429Z,96405.31
2022-09-03T13:18:54.923Z,96404.53
2022-09-03T13:21:37.729Z,96396.63
2022-09-03T13:24:30.398Z,96405.03
2022-09-03T13:27:08.449Z,96403.47
2022-09-03T13:29:49.308Z,96400.53
2022-09-03T13:32:34.317Z,96401.72
2022-09-03T13:35:09.129Z,96399.16
2022-09-03T13:37:41.644Z,96390.56
2022-09-03T13:40:19.383Z,96389.25
2022-09-03T13:42:55.472Z,96381.84
2022-09-03T13:45:31.515Z,96381.38
2022-09-03T13:48:25.236Z,96385.09
2022-09-03T13:51:01.033Z,96390.66
2022-09-03T13:53:42.460Z,96385.84
2022-09-03T13:56:21.590Z,96385.50
2022-09-03T13:58:54.476Z,96372.44
2022-09-03T14:01:28.471Z,96370.63
2022-09-03T14:04:00.955Z,96374.28
2022-09-03T14:06:42.080Z,96372.44
2022-09-03T14:09:21.728Z,96368.84
2022-09-03T14:11:56.102Z,96380.78
2022-09-03T14:14:39.060Z,96369.03
2022-09-03T14:17:15.426Z,96369.03
2022-09-03T14:19:49.806Z,96369.50
2022-09-03T14:22:24.307Z,96369.94
2022-09-03T14:24:59.331Z,96364.13
2022-09-03T14:27:29.272Z,96366.44
2022-09-03T14:30:02.849Z,96369.56
2022-09-03T14:32:41.329Z,96376.50
2022-09-03T14:35:36.865Z,96383.63
2022-09-03T14:38:30.301Z,96385.31
2022-09-03T14:41:06.372Z,96384.81
2022-09-03T14:43:58.391Z,96380.41
2022-09-03T14:46:49.905Z,96377.81
2022-09-03T14:49:44.938Z,96374.41
2022-09-03T14:52:32.676Z,96374.69
2022-09-03T14:55:14.460Z,96364.22
2022-09-03T14:58:08.237Z,96368.47
2022-09-03T15:00:48.481Z,96365.78
2022-09-03T15:04:00.176Z,96357.47
2022-09-03T15:06:42.041Z,96365.97
2022-09-03T15:09:25.555Z,96368.91
2022-09-03T15:11:58.871Z,96365.88
2022-09-03T15:14:36.683Z,96368.81
2022-09-03T15:17:29.345Z,96376.56
2022-09-03T15:20:11.810Z,96370.69
2022-09-03T15:23:02.834Z,96365.38
2022-09-03T15:25:42.599Z,96359.81
2022-09-03T15:28:16.411Z,96355.28
2022-09-03T15:30:53.277Z,96364.78
2022-09-03T15:33:28.627Z,96361.94
2022-09-03T15:36:08.006Z,96363.06
2022-09-03T15:38:42.650Z,96371.94
2022-09-03T15:41:22.714Z,96374.84
2022-09-03T15:43:52.499Z,96380.66
2022-09-03T15:46:48.423Z,96378.22
2022-09-03T15:49:28.978Z,96379.91
2022-09-03T15:52:17.244Z,96386.91
2022-09-03T15:54:54.464Z,96381.94
2022-09-03T15:57:30.033Z,96390.66
2022-09-03T16:00:04.294Z,96382.13
2022-09-03T16:02:43.974Z,96384.56
2022-09-03T16:05:18.091Z,96382.91
2022-09-03T16:08:07.880Z,96371.91
2022-09-03T16:10:51.057Z,96377.47
2022-09-03T16:13:36.967Z,96381.16
2022-09-03T16:16:08.020Z,96379.88
2022-09-03T16:18:43.170Z,96371.19
2022-09-03T16:21:25.794Z,96368.09
2022-09-03T16:23:59.894Z,96375.50
2022-09-03T16:26:33.748Z,96367.22
2022-09-03T16:29:08.218Z,96360.53
2022-09-03T16:31:48.041Z,96371.28
2022-09-03T16:34:26.821Z,96373.13
2022-09-03T16:37:05.474Z,96377.50
2022-09-03T16:39:48.260Z,96372.50
2022-09-03T16:42:28.177Z,96374.44
2022-09-03T16:45:07.917Z,96373.41
2022-09-03T16:47:48.575Z,96367.47
2022-09-03T16:50:31.834Z,96367.72
2022-09-03T16:53:12.725Z,96375.41
2022-09-03T16:55:59.377Z,96376.69
2022-09-03T16:58:35.322Z,96378.53
2022-09-03T17:01:15.956Z,96377.28
2022-09-03T17:03:59.126Z,96376.34
2022-09-03T17:06:42.704Z,96381.28
2022-09-03T17:09:26.014Z,96383.31
2022-09-03T17:12:03.482Z,96380.81
2022-09-03T17:15:00.423Z,96392.31
2022-09-03T17:17:41.812Z,96393.53
2022-09-03T17:20:16.369Z,96392.16
2022-09-03T17:23:00.639Z,96390.94
2022-09-03T17:25:35.619Z,96390.28
2022-09-03T17:28:24.813Z,96391.69
2022-09-03T17:30:58.248Z,96390.41
2022-09-03T17:33:50.610Z,96387.91
2022-09-03T17:36:24.414Z,96393.19
2022-09-03T17:39:36.193Z,96400.94
2022-09-03T17:42:08.958Z,96398.34
2022-09-03T17:44:51.350Z,96400.56
2022-09-03T17:47:42.635Z,96410.56
2022-09-03T17:50:19.095Z,96412.38
2022-09-03T17:52:52.424Z,96418.31
2022-09-03T17:55:31.140Z,96421.91
2022-09-03T17:58:07.689Z,96429.31
2022-09-03T18:00:42.899Z,96418.13
2022-09-03T18:03:18.227Z,96433.06
2022-09-03T18:05:54.794Z,96440.19
2022-09-03T18:08:32.081Z,96445.91
2022-09-03T18:11:10.148Z,96440.06
2022-09-03T18:13:51.473Z,96445.16
2022-09-03T18:16:26.495Z,96446.50
2022-09-03T18:19:01.690Z,96448.25
2022-09-03T18:21:53.930Z,96453.50
2022-09-03T18:24:51.124Z,96453.50
2022-09-03T18:27:44.588Z,96457.03
2022-09-03T18:30:33.099Z,96458.22
2022-09-03T18:33:18.780Z,96465.50
2022-09-03T18:36:05.707Z,96466.50
2022-09-03T18:38:53.092Z,96464.06
2022-09-03T18:42:09.874Z,96462.56
2022-09-03T18:45:21.491Z,96469.81
2022-09-03T18:48:22.347Z,96472.69
2022-09-03T18:51:17.039Z,96471.38
2022-09-03T18:54:11.498Z,96478.06
2022-09-03T18:57:03.442Z,96477.94
2022-09-03T19:00:07.530Z,96474.13
2022-09-03T19:03:05.116Z,96474.66
2022-09-03T19:06:01.480Z,96478.69
2022-09-03T19:08:55.689Z,96484.09
2022-09-03T19:11:50.209Z,96492.28
2022-09-03T19:14:48.607Z,96488.47
2022-09-03T19:17:41.856Z,96486.63
2022-09-03T19:20:32.934Z,96492.69
2022-09-03T19:23:18.638Z,96499.00
2022-09-03T19:26:04.470Z,96496.00
2022-09-03T19:28:54.058Z,96501.72
2022-09-03T19:31:56.793Z,96505.06
2022-09-03T19:35:05.004Z,96503.56
2022-09-03T19:37:55.911Z,96507.09
2022-09-03T19:41:12.053Z,96506.25
2022-09-03T19:44:11.480Z,96513.78
2022-09-03T19:47:05.579Z,96515.13
2022-09-03T19:50:13.551Z,96515.47
2022-09-03T19:53:07.615Z,96517.97
2022-09-03T19:55:57.834Z,96516.31
2022-09-03T19:58:47.497Z,96513.81
2022-09-03T20:01:33.531Z,96518.81
2022-09-03T20:04:24.334Z,96518.97
2022-09-03T20:07:11.092Z,96522.47
2022-09-03T20:10:01.261Z,96521.16
2022-09-03T20:12:34.858Z,96518.66
2022-09-03T20:15:04.971Z,96520.84
2022-09-03T20:17:41.064Z,96513.13
2022-09-03T20:20:17.243Z,96523.34
2022-09-03T20:22:57.048Z,96516.66
2022-09-03T20:25:41.796Z,96520.66
2022-09-03T20:28:25.050Z,96526.31
2022-09-03T20:31:00.351Z,96529.84
2022-09-03T20:33:42.170Z,96530.50
2022-09-03T20:36:21.402Z,96528.66
2022-09-03T20:39:31.137Z,96549.22
2022-09-03T20:42:15.064Z,96540.19
2022-09-03T20:44:57.133Z,96547.56
2022-09-03T20:48:00.037Z,96554.22
2022-09-03T20:50:43.273Z,96552.22
2022-09-03T20:53:44.681Z,96548.19
2022-09-03T20:56:18.610Z,96554.41
2022-09-03T20:58:55.511Z,96551.22
2022-09-03T21:01:31.872Z,96549.72
2022-09-03T21:04:13.959Z,96553.72
2022-09-03T21:06:49.612Z,96549.72
2022-09-03T21:09:24.247Z,96549.72
2022-09-03T21:12:01.705Z,96550.53
2022-09-03T21:14:35.876Z,96556.38
2022-09-03T21:17:29.589Z,96558.88
2022-09-03T21:20:13.102Z,96573.91
2022-09-03T21:22:52.730Z,96581.28
2022-09-03T21:25:25.354Z,96571.91
2022-09-03T21:27:59.100Z,96564.75
2022-09-03T21:30:31.149Z,96560.91
2022-09-03T21:33:05.752Z,96566.25
2022-09-03T21:35:37.276Z,96566.75
2022-09-03T21:38:08.526Z,96574.75
2022-09-03T21:40:46.777Z,96578.44
2022-09-03T21:43:20.524Z,96577.44
2022-09-03T21:45:58.475Z,96593.47
2022-09-03T21:48:35.204Z,96590.13
2022-09-03T21:51:08.392Z,96588.28
2022-09-03T21:53:43.233Z,96585.94
2022-09-03T21:56:32.851Z,96597.28
2022-09-03T21:59:10.289Z,96587.44
2022-09-03T22:01:50.248Z,96598.97
2022-09-03T22:04:18.704Z,96584.97
2022-09-03T22:06:54.672Z,96593.28
2022-09-03T22:09:30.119Z,96597.31
2022-09-03T22:12:07.448Z,96593.28
2022-09-03T22:14:43.176Z,96591.44
2022-09-03T22:17:18.559Z,96598.63
2022-09-03T22:19:46.715Z,96603.28
2022-09-03T22:22:22.662Z,96596.25
2022-09-03T22:24:58.875Z,96603.44
2022-09-03T22:27:35.593Z,96600.59
2022-09-03T22:30:07.509Z,96609.28
2022-09-03T22:32:49.867Z,96596.94
2022-09-03T22:35:42.840Z,96598.91
2022-09-03T22:38:38.067Z,96598.22
2022-09-03T22:41:21.778Z,96604.88
2022-09-03T22:43:58.687Z,96615.88
2022-09-03T22:46:34.292Z,96611.72
2022-09-03T22:49:27.226Z,96613.56
2022-09-03T22:52:08.977Z,96614.88
2022-09-03T22:54:53.593Z,96621.50
2022-09-03T22:57:25.249Z,96617.19
2022-09-03T23:00:05.289Z,96612.19
2022-09-03T23:02:33.672Z,96608.97
2022-09-03T23:05:08.108Z,96622.47
2022-09-03T23:07:49.491Z,96617.63
2022-09-03T23:10:25.784Z,96615.97
2022-09-03T23:13:04.754Z,96622.47
2022-09-03T23:15:35.707Z,96624.44
2022-09-03T23:18:08.939Z,96621.09
2022-09-03T23:20:42.382Z,96626.25
2022-09-03T23:23:18.019Z,96631.06
2022-09-03T23:25:50.741Z,96625.72
2022-09-03T23:28:24.176Z,96629.38
2022-09-03T23:30:52.884Z,96632.69
2022-09-03T23:33:21.068Z,96633.69
2022-09-03T23:36:03.232Z,96630.66
2022-09-03T23:38:42.119Z,96637.97
2022-09-03T23:41:22.915Z,96633.78
2022-09-03T23:44:11.816Z,96634.94
2022-09-03T23:46:54.763Z,96631.78
2022-09-03T23:49:34.673Z,96640.91
2022-09-03T23:52:23.626Z,96631.56
2022-09-03T23:55:02.338Z,96628.91
2022-09-03T23:57:39.445Z,96632.19
